Malabar, Florida
Current Conditions -  °F | °C
As of 6:53 PM on Sunday 21 Dec 2014 (Local Time) from KMLB Reporting Station
Overcast Overcast  
Wind Chill: 74°   Ceiling: 3000
Heat Index: 74°   Visibility: 10mi
Dew Point: 67°   Wind: 6mph
Humidity: 79%   Direction: 140°SE
Pressure: 30.04"   Gusts: NA
Location:  28°N, 80.57°W
Report Text: KMLB 212353Z 14005KT 10SM BKN030 OVC044 23/19 A3004 RMK AO2 SLP172 T02330194 10261 20233 53009
Loading
Personal Weather Stations






























Interactive Weather Map New forecast layout! Learn more

10-Day Weather Forecast

Advertisements
Track Severe Weather on mobile